createdAt,value
2023-03-18T00:00:22.807Z,14.63
2023-03-18T00:03:25.351Z,16.08
2023-03-18T00:06:27.888Z,11.98
2023-03-18T00:09:30.349Z,13.18
2023-03-18T00:12:33.203Z,15.93
2023-03-18T00:15:35.717Z,11.05
2023-03-18T00:18:39.215Z,12.30
2023-03-18T00:21:41.602Z,13.77
2023-03-18T00:24:43.727Z,11.30
2023-03-18T00:27:46.326Z,15.13
2023-03-18T00:30:51.500Z,13.52
2023-03-18T00:33:54.546Z,13.25
2023-03-18T00:37:00.259Z,13.85
2023-03-18T00:40:06.823Z,12.55
2023-03-18T00:43:11.026Z,14.75
2023-03-18T00:46:17.670Z,14.63
2023-03-18T00:49:20.521Z,12.10
2023-03-18T00:52:23.079Z,11.12
2023-03-18T00:55:25.959Z,9.27
2023-03-18T00:58:28.518Z,11.02
2023-03-18T01:01:31.439Z,10.82
2023-03-18T01:04:34.894Z,12.20
2023-03-18T01:07:37.787Z,13.30
2023-03-18T01:10:40.233Z,10.15
2023-03-18T01:13:42.715Z,10.43
2023-03-18T01:16:46.935Z,11.32
2023-03-18T01:19:49.848Z,10.98
2023-03-18T01:22:52.496Z,9.93
2023-03-18T01:25:55.908Z,8.80
2023-03-18T01:28:59.341Z,8.38
2023-03-18T01:32:03.096Z,10.70
2023-03-18T01:35:06.745Z,9.93
2023-03-18T01:38:09.768Z,12.18
2023-03-18T01:41:12.671Z,10.85
2023-03-18T01:44:17.704Z,10.73
2023-03-18T01:47:21.621Z,14.82
2023-03-18T01:50:32.404Z,11.50
2023-03-18T01:53:40.818Z,16.77
2023-03-18T01:56:45.106Z,11.50
2023-03-18T01:59:50.685Z,15.75
2023-03-18T02:02:54.424Z,11.38
2023-03-18T02:05:57.107Z,13.80
2023-03-18T02:09:00.462Z,13.23
2023-03-18T02:12:03.797Z,12.43
2023-03-18T02:15:11.440Z,14.45
2023-03-18T02:18:21.155Z,12.07
2023-03-18T02:21:37.512Z,14.52
2023-03-18T02:25:10.817Z,12.45
2023-03-18T02:28:18.635Z,13.18
2023-03-18T02:31:21.970Z,8.85
2023-03-18T02:34:25.947Z,11.77
2023-03-18T02:37:29.154Z,11.00
2023-03-18T02:40:34.825Z,11.30
2023-03-18T02:43:37.733Z,9.68
2023-03-18T02:46:55.270Z,11.38
2023-03-18T02:49:57.839Z,10.05
2023-03-18T02:53:02.049Z,10.05
2023-03-18T02:56:05.541Z,12.70
2023-03-18T02:59:08.635Z,11.15
2023-03-18T03:02:11.805Z,13.55
2023-03-18T03:05:14.208Z,9.52
2023-03-18T03:08:17.075Z,9.88
2023-03-18T03:11:20.686Z,11.63
2023-03-18T03:14:23.348Z,12.45
2023-03-18T03:17:25.988Z,11.07
2023-03-18T03:20:29.578Z,12.30
2023-03-18T03:23:32.848Z,12.02
2023-03-18T03:26:35.935Z,13.95
2023-03-18T03:29:38.649Z,10.65
2023-03-18T03:32:41.215Z,11.07
2023-03-18T03:35:45.493Z,13.48
2023-03-18T03:38:48.282Z,14.10
2023-03-18T03:41:51.240Z,12.70
2023-03-18T03:44:53.686Z,14.13
2023-03-18T03:47:55.956Z,11.68
2023-03-18T03:50:58.476Z,12.80
2023-03-18T03:54:00.954Z,10.63
2023-03-18T03:57:04.218Z,12.15
2023-03-18T04:00:13.605Z,14.65
2023-03-18T04:03:15.926Z,12.60
2023-03-18T04:06:18.732Z,12.95
2023-03-18T04:09:22.051Z,13.62
2023-03-18T04:12:24.724Z,13.55
2023-03-18T04:15:27.660Z,10.90
2023-03-18T04:18:30.527Z,13.82
2023-03-18T04:21:33.226Z,14.45
2023-03-18T04:24:37.397Z,13.52
2023-03-18T04:27:39.938Z,12.68
2023-03-18T04:30:42.894Z,13.55
2023-03-18T04:33:45.573Z,11.25
2023-03-18T04:36:48.264Z,11.65
2023-03-18T04:39:50.591Z,13.07
2023-03-18T04:42:53.150Z,12.55
2023-03-18T04:45:57.927Z,12.68
2023-03-18T04:49:00.691Z,14.05
2023-03-18T04:52:04.146Z,13.40
2023-03-18T04:55:08.217Z,12.32
2023-03-18T04:58:11.009Z,13.50
2023-03-18T05:01:14.346Z,14.32
2023-03-18T05:04:17.829Z,12.48
2023-03-18T05:07:21.679Z,16.73
2023-03-18T05:10:25.565Z,14.85
2023-03-18T05:13:28.517Z,12.32
2023-03-18T05:16:30.798Z,13.18
2023-03-18T05:19:34.423Z,14.65
2023-03-18T05:22:37.225Z,14.40
2023-03-18T05:25:40.850Z,15.30
2023-03-18T05:28:44.104Z,13.70
2023-03-18T05:31:47.006Z,13.25
2023-03-18T05:34:49.421Z,13.02
2023-03-18T05:37:52.528Z,12.02
2023-03-18T05:40:55.500Z,12.30
2023-03-18T05:43:58.268Z,13.82
2023-03-18T05:47:03.360Z,14.93
2023-03-18T05:50:07.537Z,13.80
2023-03-18T05:53:11.711Z,12.13
2023-03-18T05:56:15.425Z,14.00
2023-03-18T05:59:19.021Z,17.67
2023-03-18T06:02:21.792Z,12.80
2023-03-18T06:05:26.393Z,13.35
2023-03-18T06:08:29.302Z,15.02
2023-03-18T06:11:32.046Z,13.43
2023-03-18T06:14:37.264Z,13.43
2023-03-18T06:17:40.737Z,15.82
2023-03-18T06:20:43.106Z,13.27
2023-03-18T06:23:46.086Z,13.45
2023-03-18T06:26:48.380Z,13.40
2023-03-18T06:29:51.436Z,13.10
2023-03-18T06:32:54.053Z,14.10
2023-03-18T06:36:00.517Z,15.02
2023-03-18T06:39:04.171Z,11.95
2023-03-18T06:42:07.251Z,14.98
2023-03-18T06:45:10.879Z,13.38
2023-03-18T06:48:14.962Z,15.70
2023-03-18T06:51:17.841Z,14.70
2023-03-18T06:54:21.159Z,14.40
2023-03-18T06:57:24.176Z,13.02
2023-03-18T07:00:26.808Z,15.68
2023-03-18T07:03:29.438Z,15.13
2023-03-18T07:06:32.385Z,12.90
2023-03-18T07:09:34.778Z,16.27
2023-03-18T07:12:37.398Z,15.18
2023-03-18T07:15:39.696Z,14.63
2023-03-18T07:18:42.971Z,17.02
2023-03-18T07:21:46.647Z,15.98
2023-03-18T07:24:49.157Z,15.40
2023-03-18T07:27:52.111Z,14.15
2023-03-18T07:30:54.776Z,14.15
2023-03-18T07:33:57.437Z,12.52
2023-03-18T07:37:00.028Z,13.75
2023-03-18T07:40:02.272Z,14.87
2023-03-18T07:43:05.989Z,18.62
2023-03-18T07:46:08.195Z,13.45
2023-03-18T07:49:10.913Z,15.13
2023-03-18T07:52:13.917Z,12.50
2023-03-18T07:55:16.388Z,19.35
2023-03-18T07:58:18.568Z,12.77
2023-03-18T08:01:21.090Z,15.25
2023-03-18T08:04:23.943Z,14.87
2023-03-18T08:07:26.417Z,16.42
2023-03-18T08:10:29.611Z,17.98
2023-03-18T08:13:31.908Z,16.92
2023-03-18T08:16:34.361Z,11.63
2023-03-18T08:19:37.081Z,14.43
2023-03-18T08:22:39.658Z,14.43
2023-03-18T08:25:42.487Z,15.18
2023-03-18T08:28:44.984Z,13.43
2023-03-18T08:31:47.324Z,12.37
2023-03-18T08:34:49.962Z,10.55
2023-03-18T08:37:52.462Z,10.68
2023-03-18T08:40:56.827Z,11.00
2023-03-18T08:43:59.113Z,9.00
2023-03-18T08:47:01.905Z,11.27
2023-03-18T08:50:05.885Z,11.85
2023-03-18T08:53:09.334Z,9.02
2023-03-18T08:56:13.030Z,11.10
2023-03-18T08:59:15.446Z,9.02
2023-03-18T09:02:18.366Z,11.00
2023-03-18T09:05:21.529Z,8.07
2023-03-18T09:08:23.860Z,9.57
2023-03-18T09:11:26.281Z,7.95
2023-03-18T09:14:28.505Z,8.32
2023-03-18T09:17:51.061Z,8.45
2023-03-18T09:20:53.667Z,8.63
2023-03-18T09:23:56.561Z,6.72
2023-03-18T09:26:59.916Z,9.02
2023-03-18T09:30:04.048Z,10.13
2023-03-18T09:33:07.740Z,10.45
2023-03-18T09:36:10.602Z,8.45
2023-03-18T09:39:12.978Z,10.10
2023-03-18T09:42:34.378Z,9.50
2023-03-18T09:45:48.186Z,12.05
2023-03-18T09:49:12.970Z,8.45
2023-03-18T09:52:29.854Z,7.95
2023-03-18T09:55:49.461Z,10.50
2023-03-18T09:58:58.449Z,5.82
2023-03-18T10:02:02.016Z,9.65
2023-03-18T10:05:13.689Z,6.93
2023-03-18T10:08:36.163Z,7.55
2023-03-18T10:11:45.795Z,7.97
2023-03-18T10:15:16.437Z,6.87
2023-03-18T10:21:45.468Z,7.62
2023-03-18T10:24:54.431Z,7.95
2023-03-18T10:28:15.330Z,6.90
2023-03-18T10:31:30.065Z,8.70
2023-03-18T10:35:08.567Z,8.50
2023-03-18T10:38:29.327Z,7.50
2023-03-18T10:41:37.258Z,10.63
2023-03-18T10:44:41.975Z,8.93
2023-03-18T10:47:50.564Z,8.60
2023-03-18T10:51:11.264Z,9.63
2023-03-18T10:54:32.486Z,9.60
2023-03-18T10:57:34.910Z,8.52
2023-03-18T11:00:37.359Z,11.38
2023-03-18T11:03:50.348Z,8.38
2023-03-18T11:07:03.073Z,8.10
2023-03-18T11:10:23.785Z,8.52
2023-03-18T11:13:27.048Z,8.10
2023-03-18T11:16:40.485Z,6.07
2023-03-18T11:19:48.737Z,9.77
2023-03-18T11:22:55.434Z,7.78
2023-03-18T11:26:02.784Z,6.55
2023-03-18T11:29:13.155Z,9.45
2023-03-18T11:32:26.621Z,6.05
2023-03-18T11:35:38.000Z,7.10
2023-03-18T11:38:40.392Z,6.85
2023-03-18T11:41:42.938Z,9.52
2023-03-18T11:44:45.125Z,6.65
2023-03-18T11:47:47.684Z,6.95
2023-03-18T11:51:00.560Z,7.40
2023-03-18T11:54:02.983Z,7.12
2023-03-18T11:57:15.684Z,7.90
2023-03-18T12:00:26.941Z,6.15
2023-03-18T12:03:57.474Z,9.15
2023-03-18T12:07:30.901Z,11.05
2023-03-18T12:10:37.670Z,7.07
2023-03-18T12:14:41.613Z,7.85
2023-03-18T12:17:55.701Z,5.87
2023-03-18T12:21:24.472Z,10.48
2023-03-18T12:24:40.006Z,8.80
2023-03-18T12:28:14.454Z,7.65
2023-03-18T12:31:35.849Z,7.45
2023-03-18T12:35:17.388Z,7.55
2023-03-18T12:38:40.838Z,7.28
2023-03-18T12:42:03.296Z,9.23
2023-03-18T12:45:14.552Z,7.25
2023-03-18T12:48:36.885Z,7.43
2023-03-18T12:52:20.819Z,9.30
2023-03-18T12:55:31.410Z,9.98
2023-03-18T12:58:42.930Z,6.05
2023-03-18T13:01:53.085Z,5.57
2023-03-18T13:05:01.662Z,7.62
2023-03-18T13:08:12.847Z,6.45
2023-03-18T13:11:49.165Z,8.48
2023-03-18T13:14:57.435Z,5.32
2023-03-18T13:18:18.803Z,6.22
2023-03-18T13:21:24.528Z,6.32
2023-03-18T13:24:57.502Z,5.68
2023-03-18T13:28:41.736Z,6.87
2023-03-18T13:31:52.996Z,6.85
2023-03-18T13:38:25.376Z,6.62
2023-03-18T13:41:44.992Z,7.15
2023-03-18T13:45:05.182Z,6.20
2023-03-18T13:48:13.095Z,5.55
2023-03-18T13:51:35.548Z,4.65
2023-03-18T13:54:39.015Z,5.30
2023-03-18T13:58:19.541Z,5.87
2023-03-18T14:01:24.522Z,4.85
2023-03-18T14:04:32.406Z,8.45
2023-03-18T14:07:47.785Z,5.43
2023-03-18T14:11:10.158Z,4.85
2023-03-18T14:14:40.549Z,4.90
2023-03-18T14:17:58.605Z,6.10
2023-03-18T14:21:02.575Z,4.20
2023-03-18T14:24:24.226Z,4.50
2023-03-18T14:27:26.608Z,6.60
2023-03-18T14:30:32.067Z,5.12
2023-03-18T14:33:39.828Z,5.70
2023-03-18T14:36:54.245Z,4.85
2023-03-18T14:40:03.768Z,4.82
2023-03-18T14:43:23.421Z,4.22
2023-03-18T14:46:34.602Z,4.20
2023-03-18T14:49:51.382Z,4.07
2023-03-18T14:53:01.321Z,4.80
2023-03-18T14:56:04.860Z,4.45
2023-03-18T14:59:07.945Z,4.93
2023-03-18T15:02:25.553Z,4.53
2023-03-18T15:05:34.951Z,5.55
2023-03-18T15:08:47.749Z,6.30
2023-03-18T15:11:50.443Z,4.50
2023-03-18T15:14:52.895Z,5.15
2023-03-18T15:17:55.109Z,5.82
2023-03-18T15:21:23.314Z,6.80
2023-03-18T15:24:27.003Z,4.18
2023-03-18T15:27:34.490Z,7.78
2023-03-18T15:30:37.532Z,5.75
2023-03-18T15:33:40.290Z,4.40
2023-03-18T15:36:44.473Z,4.90
2023-03-18T15:39:46.949Z,5.72
2023-03-18T15:42:49.464Z,4.62
2023-03-18T15:45:58.759Z,4.60
2023-03-18T15:49:04.395Z,5.97
2023-03-18T15:52:08.191Z,4.20
2023-03-18T15:55:37.370Z,4.95
2023-03-18T15:58:39.937Z,4.18
2023-03-18T16:01:42.303Z,4.20
2023-03-18T16:04:45.992Z,4.37
2023-03-18T16:07:49.011Z,5.68
2023-03-18T16:10:56.555Z,4.55
2023-03-18T16:13:59.743Z,4.20
2023-03-18T16:17:02.613Z,4.07
2023-03-18T16:20:18.358Z,5.28
2023-03-18T16:23:21.798Z,4.90
2023-03-18T16:26:23.931Z,4.85
2023-03-18T16:29:38.194Z,6.12
2023-03-18T16:32:40.476Z,4.30
2023-03-18T16:35:43.817Z,4.45
2023-03-18T16:38:46.301Z,4.47
2023-03-18T16:41:49.656Z,6.53
2023-03-18T16:44:52.233Z,4.60
2023-03-18T16:47:58.300Z,4.65
2023-03-18T16:51:02.776Z,7.75
2023-03-18T16:54:18.908Z,4.22
2023-03-18T16:57:21.879Z,5.10
2023-03-18T17:00:30.013Z,5.50
2023-03-18T17:03:32.932Z,6.68
2023-03-18T17:06:35.714Z,5.07
2023-03-18T17:09:38.647Z,6.25
2023-03-18T17:12:47.285Z,6.72
2023-03-18T17:15:50.705Z,6.03
2023-03-18T17:18:53.156Z,5.82
2023-03-18T17:21:55.570Z,7.00
2023-03-18T17:25:00.517Z,7.03
2023-03-18T17:28:06.067Z,7.37
2023-03-18T17:31:10.637Z,5.82
2023-03-18T17:34:14.024Z,6.35
2023-03-18T17:37:16.715Z,7.70
2023-03-18T17:40:20.046Z,7.65
2023-03-18T17:43:27.966Z,6.93
2023-03-18T17:46:31.080Z,8.02
2023-03-18T17:49:33.521Z,9.82
2023-03-18T17:52:35.676Z,8.52
2023-03-18T17:55:38.191Z,8.63
2023-03-18T17:58:44.480Z,9.95
2023-03-18T18:01:48.976Z,9.35
2023-03-18T18:04:51.568Z,7.50
2023-03-18T18:07:53.979Z,9.68
2023-03-18T18:11:10.156Z,10.45
2023-03-18T18:14:26.023Z,9.07
2023-03-18T18:17:28.612Z,9.40
2023-03-18T18:20:31.366Z,8.48
2023-03-18T18:23:37.001Z,10.68
2023-03-18T18:26:39.213Z,9.40
2023-03-18T18:29:45.948Z,8.73
2023-03-18T18:32:48.889Z,9.73
2023-03-18T18:35:51.736Z,10.13
2023-03-18T18:38:54.987Z,7.57
2023-03-18T18:41:57.474Z,8.77
2023-03-18T18:44:59.618Z,10.85
2023-03-18T18:48:02.287Z,8.20
2023-03-18T18:51:04.667Z,11.18
2023-03-18T18:54:08.418Z,9.95
2023-03-18T18:57:28.981Z,9.98
2023-03-18T19:00:31.609Z,12.35
2023-03-18T19:03:34.357Z,11.90
2023-03-18T19:06:37.651Z,11.70
2023-03-18T19:09:40.112Z,12.48
2023-03-18T19:12:44.172Z,12.25
2023-03-18T19:15:48.591Z,14.73
2023-03-18T19:18:51.065Z,11.57
2023-03-18T19:21:53.237Z,12.90
2023-03-18T19:24:55.709Z,16.87
2023-03-18T19:27:58.128Z,15.73
2023-03-18T19:31:00.573Z,13.18
2023-03-18T19:34:13.788Z,12.70
2023-03-18T19:37:17.875Z,14.38
2023-03-18T19:40:30.174Z,14.98
2023-03-18T19:43:32.877Z,15.35
2023-03-18T19:46:38.497Z,15.60
2023-03-18T19:49:41.379Z,14.23
2023-03-18T19:52:43.750Z,15.05
2023-03-18T19:55:47.577Z,13.60
2023-03-18T19:58:52.637Z,17.27
2023-03-18T20:01:55.633Z,18.48
2023-03-18T20:05:00.555Z,15.20
2023-03-18T20:08:02.730Z,15.50
2023-03-18T20:11:05.508Z,17.42
2023-03-18T20:14:22.632Z,16.33
2023-03-18T20:17:38.646Z,15.93
2023-03-18T20:20:44.335Z,14.98
2023-03-18T20:23:47.396Z,17.50
2023-03-18T20:26:49.517Z,16.42
2023-03-18T20:29:51.978Z,13.77
2023-03-18T20:32:54.581Z,13.50
2023-03-18T20:35:57.066Z,18.10
2023-03-18T20:38:59.303Z,16.55
2023-03-18T20:42:01.708Z,15.85
2023-03-18T20:45:04.078Z,15.45
2023-03-18T20:48:07.144Z,14.05
2023-03-18T20:51:20.798Z,14.30
2023-03-18T20:54:31.374Z,13.62
2023-03-18T20:57:33.482Z,12.90
2023-03-18T21:00:35.971Z,12.70
2023-03-18T21:03:38.285Z,15.80
2023-03-18T21:06:42.622Z,12.35
2023-03-18T21:09:45.015Z,15.02
2023-03-18T21:12:48.239Z,14.18
2023-03-18T21:15:50.441Z,14.10
2023-03-18T21:18:52.912Z,15.85
2023-03-18T21:21:55.040Z,14.07
2023-03-18T21:24:57.860Z,18.20
2023-03-18T21:28:00.080Z,17.62
2023-03-18T21:31:02.823Z,18.48
2023-03-18T21:34:05.128Z,19.95
2023-03-18T21:37:17.509Z,18.65
2023-03-18T21:40:22.473Z,17.75
2023-03-18T21:43:31.694Z,19.30
2023-03-18T21:46:34.514Z,19.67
2023-03-18T21:49:36.970Z,17.98
2023-03-18T21:52:39.143Z,17.87
2023-03-18T21:55:41.727Z,20.37
2023-03-18T21:58:44.391Z,18.10
2023-03-18T22:01:46.940Z,18.48
2023-03-18T22:04:49.456Z,17.35
2023-03-18T22:07:52.936Z,16.55
2023-03-18T22:10:55.459Z,18.12
2023-03-18T22:13:57.638Z,18.33
2023-03-18T22:17:00.009Z,17.08
2023-03-18T22:20:02.317Z,18.58
2023-03-18T22:23:16.402Z,16.60
2023-03-18T22:26:20.278Z,19.42
2023-03-18T22:29:24.178Z,20.92
2023-03-18T22:32:37.700Z,16.00
2023-03-18T22:35:40.344Z,16.90
2023-03-18T22:38:43.078Z,19.20
2023-03-18T22:41:45.783Z,18.10
2023-03-18T22:44:48.097Z,15.57
2023-03-18T22:47:52.023Z,14.75
2023-03-18T22:50:55.900Z,17.35
2023-03-18T22:53:58.352Z,17.50
2023-03-18T22:57:00.610Z,22.87
2023-03-18T23:00:14.930Z,17.42
2023-03-18T23:03:20.276Z,17.23
2023-03-18T23:06:23.997Z,16.87
2023-03-18T23:09:27.596Z,19.50
2023-03-18T23:12:32.505Z,17.30
2023-03-18T23:15:34.991Z,19.05
2023-03-18T23:18:37.919Z,18.60
2023-03-18T23:21:40.583Z,17.85
2023-03-18T23:24:43.024Z,19.08
2023-03-18T23:27:45.532Z,17.67
2023-03-18T23:30:51.016Z,18.25
2023-03-18T23:33:53.182Z,16.30
2023-03-18T23:36:55.683Z,16.27
2023-03-18T23:39:57.834Z,18.42
2023-03-18T23:43:00.337Z,17.58
2023-03-18T23:46:03.592Z,16.42
2023-03-18T23:49:06.233Z,16.37
2023-03-18T23:52:11.304Z,17.08
2023-03-18T23:55:32.713Z,17.58
2023-03-18T23:58:36.038Z,17.08
